Time;durP1;ratioP1;P1;durP2;ratioP2;P2;SDS_P1;SDS_P2;PMS_P1;PMS_P2;Temp;Humidity;BMP_temperature;BMP_pressure;BME280_temperature;BME280_humidity;BME280_pressure;Samples;Min_cycle;Max_cycle;Signal;HPM_P1;HPM_P2
2022/10/08 00:02:28;;;;;;;11.20;9.00;;;13.20;99.90;;;;;;8378151;28;20193;-68
2022/10/08 00:06:31;;;;;;;10.13;9.07;;;13.10;1.00;;;;;;8377545;28;20213;-68
2022/10/08 00:10:32;;;;;;;10.50;8.63;;;13.10;1.00;;;;;;8375773;28;20200;-68
2022/10/08 00:14:33;;;;;;;11.87;9.13;;;13.10;1.00;;;;;;8378663;28;20217;-67
2022/10/08 00:18:34;;;;;;;9.93;7.97;;;13.10;1.00;;;;;;8374604;28;20257;-67
2022/10/08 00:22:35;;;;;;;15.60;9.10;;;13.00;1.00;;;;;;8390915;28;20247;-68
2022/10/08 00:26:36;;;;;;;9.33;8.10;;;13.00;3.80;;;;;;8375048;28;20279;-68
2022/10/08 00:30:38;;;;;;;10.43;7.30;;;12.90;1.00;;;;;;8378462;28;20186;-67
2022/10/08 00:34:40;;;;;;;11.33;8.23;;;12.80;99.90;;;;;;8376189;28;20247;-67
2022/10/08 00:38:40;;;;;;;9.13;8.07;;;12.70;99.90;;;;;;8374882;28;20197;-67
2022/10/08 00:42:41;;;;;;;10.23;8.07;;;12.60;1.00;;;;;;8374787;28;20178;-67
2022/10/08 00:46:48;;;;;;;9.90;7.60;;;12.50;99.90;;;;;;8375691;28;20189;-67
2022/10/08 00:50:49;;;;;;;12.83;7.83;;;12.30;1.00;;;;;;8373629;28;20185;-68
2022/10/08 00:54:50;;;;;;;8.03;7.10;;;12.20;99.90;;;;;;8377274;28;20295;-68
2022/10/08 00:58:51;;;;;;;7.63;6.83;;;12.10;1.00;;;;;;8373317;28;20203;-69
2022/10/08 01:02:53;;;;;;;8.60;7.57;;;12.00;99.90;;;;;;8377406;28;20205;-67
2022/10/08 01:07:12;;;;;;;8.80;7.73;;;11.90;99.90;;;;;;8376601;28;20214;-68
2022/10/08 01:11:31;;;;;;;10.23;8.10;;;11.80;99.90;;;;;;8375769;28;20201;-68
2022/10/08 01:15:44;;;;;;;10.00;8.60;;;11.70;99.90;;;;;;8369813;28;20213;-67
2022/10/08 01:20:32;;;;;;;9.90;7.67;;;11.80;99.90;;;;;;8376086;28;20182;-67
2022/10/08 01:29:17;;;;;;;12.67;9.03;;;11.80;99.90;;;;;;8361590;28;20216;-68
2022/10/08 01:33:27;;;;;;;11.53;8.73;;;11.90;99.90;;;;;;8390451;28;20189;-68
2022/10/08 01:37:36;;;;;;;9.87;8.23;;;11.90;99.90;;;;;;8376194;28;20209;-67
2022/10/08 01:41:39;;;;;;;10.50;7.53;;;11.90;99.90;;;;;;8382871;28;20185;-67
2022/10/08 01:45:44;;;;;;;11.23;8.37;;;11.90;99.90;;;;;;8381629;28;20199;-67
2022/10/08 01:49:49;;;;;;;11.10;7.77;;;11.90;99.90;;;;;;8382953;28;20213;-68
2022/10/08 01:53:51;;;;;;;11.17;8.80;;;11.90;99.90;;;;;;8380313;28;20215;-68
2022/10/08 01:57:56;;;;;;;11.00;8.53;;;12.00;99.90;;;;;;8380839;28;20197;-68
2022/10/08 02:02:12;;;;;;;8.20;7.27;;;12.00;99.90;;;;;;8372338;28;20277;-67
2022/10/08 02:06:13;;;;;;;8.00;7.20;;;11.90;99.90;;;;;;8380467;28;20195;-68
2022/10/08 02:10:23;;;;;;;11.37;8.17;;;12.00;99.90;;;;;;8375995;28;20190;-68
2022/10/08 02:14:26;;;;;;;8.63;6.73;;;11.90;99.90;;;;;;8380713;28;20205;-68
2022/10/08 02:18:36;;;;;;;8.83;7.00;;;11.90;99.90;;;;;;8382056;28;20182;-68
2022/10/08 02:22:43;;;;;;;9.07;6.20;;;11.90;99.90;;;;;;8379680;28;20178;-67
2022/10/08 02:26:48;;;;;;;11.67;7.13;;;11.90;93.30;;;;;;8379389;28;20193;-67
2022/10/08 02:31:14;;;;;;;9.27;6.57;;;11.80;1.00;;;;;;8378775;28;20216;-68
2022/10/08 02:35:35;;;;;;;8.90;5.83;;;11.70;1.00;;;;;;8378803;28;20715;-68
2022/10/08 02:39:40;;;;;;;7.47;5.90;;;11.50;1.00;;;;;;8376293;28;20200;-67
2022/10/08 02:43:46;;;;;;;7.97;5.87;;;11.50;64.80;;;;;;8377360;28;20200;-67
2022/10/08 02:47:50;;;;;;;7.70;5.93;;;11.40;99.90;;;;;;8375732;28;20219;-68
2022/10/08 02:51:53;;;;;;;7.23;5.33;;;11.40;99.90;;;;;;8377643;28;20195;-68
2022/10/08 02:56:03;;;;;;;8.60;6.40;;;11.40;99.90;;;;;;8379078;28;20217;-68
2022/10/08 03:00:05;;;;;;;7.33;5.60;;;11.40;99.90;;;;;;8373459;28;20212;-67
2022/10/08 03:04:24;;;;;;;9.37;5.87;;;11.30;99.90;;;;;;8375959;28;20231;-68
2022/10/08 03:08:25;;;;;;;7.20;6.27;;;11.30;99.90;;;;;;8379446;28;20189;-69
2022/10/08 03:12:26;;;;;;;7.30;6.30;;;11.20;99.90;;;;;;8378410;28;20268;-67
2022/10/08 03:16:36;;;;;;;6.93;6.23;;;11.20;99.90;;;;;;8378967;28;20216;-67
2022/10/08 03:20:45;;;;;;;7.50;6.10;;;11.20;99.90;;;;;;8378453;28;20212;-68
2022/10/08 03:24:46;;;;;;;10.03;6.60;;;11.20;99.90;;;;;;8394982;28;20282;-68
2022/10/08 03:28:47;;;;;;;10.50;7.20;;;11.20;99.90;;;;;;8378235;28;20185;-68
2022/10/08 03:32:47;;;;;;;10.70;7.23;;;11.20;99.90;;;;;;8376331;28;20200;-68
2022/10/08 03:36:48;;;;;;;8.40;6.63;;;11.30;99.90;;;;;;8374624;28;20273;-67
2022/10/08 03:40:54;;;;;;;11.13;7.30;;;11.40;99.90;;;;;;8377080;28;20318;-68
2022/10/08 03:44:55;;;;;;;12.20;8.13;;;11.50;99.90;;;;;;8379376;28;20184;-68
2022/10/08 03:48:56;;;;;;;8.77;7.23;;;11.60;99.90;;;;;;8379503;28;20245;-67
2022/10/08 03:52:56;;;;;;;10.47;7.13;;;11.70;99.90;;;;;;8378879;28;20185;-68
2022/10/08 03:56:57;;;;;;;7.40;6.43;;;11.70;99.90;;;;;;8379243;28;20297;-68
2022/10/08 04:01:12;;;;;;;8.70;7.23;;;11.70;99.90;;;;;;8379242;28;20193;-67
2022/10/08 04:05:13;;;;;;;8.97;6.73;;;11.70;99.90;;;;;;8380796;28;20188;-68
2022/10/08 04:09:14;;;;;;;8.10;6.43;;;11.60;99.90;;;;;;8374560;28;20188;-67
2022/10/08 04:13:15;;;;;;;11.23;8.07;;;11.60;99.90;;;;;;8376240;28;20177;-68
2022/10/08 04:17:16;;;;;;;9.30;7.03;;;11.60;99.90;;;;;;8378447;28;20220;-67
2022/10/08 04:21:18;;;;;;;8.57;7.47;;;11.60;99.90;;;;;;8376688;28;20275;-67
2022/10/08 04:25:18;;;;;;;10.80;7.20;;;11.70;99.90;;;;;;8374374;28;20181;-68
2022/10/08 04:29:19;;;;;;;8.97;6.87;;;11.70;99.90;;;;;;8376842;28;20188;-68
2022/10/08 04:33:20;;;;;;;10.13;7.20;;;11.70;99.90;;;;;;8376709;28;20193;-67
2022/10/08 04:37:21;;;;;;;9.40;7.53;;;11.70;99.90;;;;;;8374668;28;20255;-67
2022/10/08 04:41:25;;;;;;;9.97;7.00;;;11.70;99.90;;;;;;8376003;28;20235;-68
2022/10/08 04:45:25;;;;;;;12.70;7.67;;;11.80;99.90;;;;;;8380333;28;20196;-67
2022/10/08 04:49:28;;;;;;;14.80;9.13;;;11.90;99.90;;;;;;8378035;28;20182;-67
2022/10/08 04:53:29;;;;;;;10.83;8.60;;;12.10;99.90;;;;;;8379641;28;20192;-67
2022/10/08 04:57:30;;;;;;;11.20;8.00;;;12.20;99.90;;;;;;8374485;28;20213;-69
2022/10/08 05:01:31;;;;;;;10.80;7.90;;;12.20;99.90;;;;;;8376648;28;20204;-68
2022/10/08 05:05:32;;;;;;;11.60;7.07;;;12.30;99.90;;;;;;8374806;28;20189;-67
2022/10/08 05:09:33;;;;;;;9.97;7.23;;;12.40;99.90;;;;;;8377483;28;20238;-67
2022/10/08 05:13:34;;;;;;;12.13;8.10;;;12.40;99.90;;;;;;8380516;28;20189;-67
2022/10/08 05:17:35;;;;;;;12.07;8.93;;;12.40;99.90;;;;;;8381962;28;20283;-68
2022/10/08 05:21:35;;;;;;;10.33;8.73;;;12.50;99.90;;;;;;8381137;28;20196;-67
2022/10/08 05:25:36;;;;;;;12.23;8.43;;;12.60;1.00;;;;;;8379342;28;20244;-67
2022/10/08 05:29:37;;;;;;;11.73;8.60;;;12.70;1.00;;;;;;8380754;28;20203;-67
2022/10/08 05:33:38;;;;;;;12.50;9.00;;;12.80;99.90;;;;;;8381692;28;20625;-68
2022/10/08 05:37:39;;;;;;;9.60;7.80;;;12.90;1.00;;;;;;8383258;28;20232;-67
2022/10/08 05:41:40;;;;;;;11.40;8.40;;;13.00;99.90;;;;;;8379140;28;20192;-67
2022/10/08 05:45:49;;;;;;;12.27;7.93;;;13.10;99.90;;;;;;8375989;28;20189;-67
2022/10/08 05:49:49;;;;;;;11.47;9.20;;;13.10;99.90;;;;;;8379233;28;20189;-67
2022/10/08 05:53:52;;;;;;;11.83;8.80;;;13.20;1.00;;;;;;8378713;28;20193;-67
2022/10/08 05:57:52;;;;;;;9.90;8.50;;;13.30;99.90;;;;;;8377624;28;20208;-67
2022/10/08 06:01:53;;;;;;;10.63;8.87;;;13.30;1.00;;;;;;8380311;28;20276;-68
2022/10/08 06:05:59;;;;;;;10.23;8.33;;;13.30;99.90;;;;;;8378534;28;20201;-67
2022/10/08 06:10:00;;;;;;;11.80;8.43;;;13.40;99.90;;;;;;8376451;28;20212;-69
2022/10/08 06:14:01;;;;;;;7.97;7.13;;;13.40;99.90;;;;;;8380904;28;20185;-67
2022/10/08 06:18:02;;;;;;;8.27;7.20;;;13.50;99.90;;;;;;8379638;28;20192;-67
2022/10/08 06:22:04;;;;;;;10.17;7.20;;;13.60;62.90;;;;;;8380261;28;20221;-67
2022/10/08 06:26:09;;;;;;;7.83;6.57;;;13.60;1.00;;;;;;8377383;28;20181;-68
2022/10/08 06:30:10;;;;;;;12.30;9.13;;;13.60;1.00;;;;;;8379987;28;20206;-67
2022/10/08 06:34:11;;;;;;;13.20;8.30;;;13.70;1.00;;;;;;8381790;28;20219;-68
2022/10/08 06:38:11;;;;;;;10.10;7.87;;;13.80;1.00;;;;;;8380621;28;20195;-68
2022/10/08 06:42:12;;;;;;;9.43;8.03;;;13.80;1.00;;;;;;8378509;28;20191;-68
2022/10/08 06:46:13;;;;;;;9.97;7.77;;;13.80;1.00;;;;;;8379017;28;20212;-72
2022/10/08 06:50:14;;;;;;;13.00;8.27;;;13.90;99.90;;;;;;8375494;28;20193;-67
2022/10/08 06:54:15;;;;;;;15.23;8.93;;;13.90;99.90;;;;;;8374830;28;20235;-69
2022/10/08 06:58:15;;;;;;;10.60;7.70;;;14.00;99.90;;;;;;8377209;28;20205;-67
2022/10/08 07:02:16;;;;;;;12.17;8.70;;;14.20;99.90;;;;;;8374861;28;20419;-67
2022/10/08 07:06:18;;;;;;;10.90;8.77;;;14.40;99.90;;;;;;8377026;28;20184;-68
2022/10/08 07:10:18;;;;;;;10.30;8.37;;;14.50;99.90;;;;;;8368460;28;20189;-67
2022/10/08 07:14:19;;;;;;;11.13;8.70;;;14.70;99.90;;;;;;8373745;28;20232;-68
2022/10/08 07:18:20;;;;;;;13.30;8.43;;;14.90;1.00;;;;;;8377407;28;20181;-68
2022/10/08 07:22:21;;;;;;;13.40;8.33;;;15.20;1.00;;;;;;8376956;28;20185;-68
2022/10/08 07:26:25;;;;;;;9.57;7.43;;;15.40;1.00;;;;;;8368235;28;20236;-68
2022/10/08 07:30:26;;;;;;;10.60;7.30;;;15.60;1.00;;;;;;8374708;28;20185;-69
2022/10/08 07:34:26;;;;;;;9.37;7.03;;;15.80;99.90;;;;;;8376109;28;20215;-68
2022/10/08 07:38:27;;;;;;;10.10;7.07;;;15.90;99.90;;;;;;8376666;28;20177;-68
2022/10/08 07:42:30;;;;;;;8.67;6.87;;;16.10;99.90;;;;;;8377112;28;20231;-67
2022/10/08 07:46:34;;;;;;;8.10;5.90;;;16.30;99.90;;;;;;8370207;28;20189;-68
2022/10/08 07:50:35;;;;;;;11.33;6.70;;;16.50;99.90;;;;;;8372790;28;20189;-69
2022/10/08 07:54:36;;;;;;;8.80;6.53;;;16.90;99.90;;;;;;8376855;28;20236;-69
2022/10/08 07:58:37;;;;;;;8.60;6.17;;;17.10;99.90;;;;;;8373992;28;20344;-68
2022/10/08 08:02:37;;;;;;;8.53;6.33;;;17.30;99.90;;;;;;8378372;28;20193;-69
2022/10/08 08:06:44;;;;;;;8.13;6.40;;;17.40;99.90;;;;;;8374112;28;20192;-67
2022/10/08 08:10:44;;;;;;;9.80;6.27;;;17.50;99.90;;;;;;8375016;28;20201;-66
2022/10/08 08:14:45;;;;;;;9.20;6.17;;;17.60;99.90;;;;;;8374150;28;20232;-66
2022/10/08 08:18:48;;;;;;;11.10;6.90;;;17.60;99.90;;;;;;8373697;28;20264;-67
2022/10/08 08:22:49;;;;;;;13.50;7.03;;;17.50;99.90;;;;;;8373110;28;20181;-65
2022/10/08 08:26:50;;;;;;;12.50;8.00;;;17.50;99.90;;;;;;8373974;28;20672;-67
2022/10/08 08:30:51;;;;;;;8.53;6.70;;;17.60;99.90;;;;;;8372196;28;20238;-68
2022/10/08 08:34:51;;;;;;;9.90;6.77;;;17.70;99.90;;;;;;8368374;28;20426;-67
2022/10/08 08:38:52;;;;;;;8.77;7.43;;;17.90;99.90;;;;;;8376704;28;20280;-67
2022/10/08 08:42:55;;;;;;;9.13;7.07;;;18.00;99.90;;;;;;8376321;28;20182;-75
2022/10/08 08:47:02;;;;;;;9.40;7.33;;;18.20;99.90;;;;;;8381860;28;20260;-67
2022/10/08 08:51:03;;;;;;;12.67;9.00;;;18.20;99.90;;;;;;8382133;28;20185;-67
2022/10/08 08:55:16;;;;;;;9.33;7.90;;;18.20;99.90;;;;;;8381622;28;20525;-67
2022/10/08 08:59:28;;;;;;;11.03;8.40;;;17.80;99.90;;;;;;8375652;28;20205;-66
2022/10/08 09:03:38;;;;;;;10.77;9.07;;;17.60;99.90;;;;;;8379252;28;20209;-67
2022/10/08 09:07:48;;;;;;;11.73;8.20;;;17.20;99.90;;;;;;8375339;28;20277;-66
2022/10/08 09:11:49;;;;;;;10.27;6.83;;;16.90;99.90;;;;;;8379685;28;20487;-67
2022/10/08 09:15:51;;;;;;;12.63;7.70;;;16.90;99.90;;;;;;8382290;28;20236;-67
2022/10/08 09:19:53;;;;;;;11.03;7.87;;;17.10;99.90;;;;;;8376430;28;20187;-67
2022/10/08 09:23:53;;;;;;;8.93;6.90;;;17.50;99.90;;;;;;8380067;28;20173;-67
2022/10/08 09:28:00;;;;;;;10.27;7.80;;;17.80;99.90;;;;;;8379784;28;20294;-66
2022/10/08 09:32:01;;;;;;;11.43;6.83;;;18.00;99.90;;;;;;8379932;28;20183;-66
2022/10/08 09:36:01;;;;;;;12.40;7.60;;;17.80;99.90;;;;;;8379062;28;20216;-67
2022/10/08 09:40:28;;;;;;;13.80;7.90;;;17.70;99.90;;;;;;8378513;28;20492;-67
2022/10/08 09:44:46;;;;;;;15.27;7.87;;;17.50;99.90;;;;;;8372727;28;20243;-67
2022/10/08 09:48:47;;;;;;;11.07;6.87;;;17.40;99.90;;;;;;8372943;28;20186;-67
2022/10/08 09:52:51;;;;;;;11.10;7.73;;;17.60;99.90;;;;;;8377796;28;20223;-68
2022/10/08 09:56:55;;;;;;;10.63;6.37;;;17.80;99.90;;;;;;8376427;28;20220;-66
2022/10/08 10:01:03;;;;;;;12.50;7.30;;;18.30;99.90;;;;;;8391472;28;20193;-68
2022/10/08 10:05:23;;;;;;;10.27;5.80;;;18.50;99.90;;;;;;8379304;28;20189;-67
2022/10/08 10:09:42;;;;;;;10.43;6.23;;;18.40;99.90;;;;;;8376886;28;20177;-67
2022/10/08 10:13:44;;;;;;;7.70;5.17;;;18.30;99.90;;;;;;8380861;28;20250;-66
2022/10/08 10:18:13;;;;;;;8.23;5.77;;;18.10;99.90;;;;;;8377318;28;20225;-67
2022/10/08 10:22:31;;;;;;;8.13;5.93;;;18.10;99.90;;;;;;8379055;28;20185;-69
2022/10/08 10:26:37;;;;;;;7.60;5.17;;;18.00;99.60;;;;;;8376607;28;20177;-67
2022/10/08 10:30:46;;;;;;;7.53;5.07;;;18.00;99.90;;;;;;8394331;28;20683;-67
2022/10/08 10:34:57;;;;;;;12.07;6.23;;;18.40;99.90;;;;;;8376488;28;20581;-67
2022/10/08 10:39:22;;;;;;;10.57;5.40;;;18.50;91.80;;;;;;8374879;28;20185;-66
2022/10/08 10:43:36;;;;;;;8.60;5.80;;;18.60;99.90;;;;;;8376674;28;20501;-66
2022/10/08 10:47:37;;;;;;;10.37;6.13;;;18.70;95.30;;;;;;8376663;28;20185;-67
2022/10/08 10:51:53;;;;;;;11.00;6.73;;;18.70;97.30;;;;;;8375514;28;20192;-67
2022/10/08 10:56:13;;;;;;;9.80;6.07;;;18.90;77.30;;;;;;8371083;28;20214;-67
2022/10/08 11:00:25;;;;;;;7.60;5.47;;;19.10;80.50;;;;;;8373944;28;20197;-70
2022/10/08 11:04:43;;;;;;;8.20;5.60;;;19.20;58.20;;;;;;8378308;28;20200;-68
2022/10/08 11:09:00;;;;;;;9.03;5.97;;;19.30;36.90;;;;;;8374047;28;20262;-67
2022/10/08 11:13:16;;;;;;;11.13;5.87;;;19.00;45.80;;;;;;8390922;28;20189;-67
2022/10/08 11:17:26;;;;;;;7.47;3.87;;;18.90;51.90;;;;;;8371463;28;20220;-67
2022/10/08 11:21:33;;;;;;;6.33;3.73;;;18.80;17.00;;;;;;8373603;28;20185;-68
2022/10/08 11:25:47;;;;;;;3.93;3.20;;;18.60;8.20;;;;;;8375470;28;20181;-67
2022/10/08 11:30:18;;;;;;;5.43;2.37;;;18.70;17.00;;;;;;8375161;28;20192;-67
2022/10/08 11:34:32;;;;;;;6.97;3.20;;;18.70;1.00;;;;;;8369143;28;20213;-68
2022/10/08 11:39:01;;;;;;;6.70;3.07;;;18.70;1.00;;;;;;8375596;28;20189;-67
2022/10/08 11:43:07;;;;;;;7.57;2.70;;;18.60;1.00;;;;;;8372456;28;20212;-68
2022/10/08 11:47:42;;;;;;;5.87;2.30;;;18.40;1.00;;;;;;8376793;28;20273;-66
2022/10/08 11:51:49;;;;;;;6.80;2.70;;;18.30;1.00;;;;;;8369955;28;21297;-69
2022/10/08 11:55:59;;;;;;;3.90;2.00;;;18.00;1.00;;;;;;8374439;28;20362;-68
2022/10/08 12:00:04;;;;;;;4.67;2.30;;;18.20;1.00;;;;;;8377606;28;20204;-69
2022/10/08 12:04:19;;;;;;;6.23;2.17;;;18.40;1.00;;;;;;8374688;28;20200;-67
2022/10/08 12:08:56;;;;;;;4.40;2.10;;;18.60;1.00;;;;;;8374242;28;20185;-68
2022/10/08 12:13:00;;;;;;;5.13;2.40;;;18.50;1.00;;;;;;8369614;28;20224;-71
2022/10/08 12:17:05;;;;;;;5.73;2.10;;;18.30;1.00;;;;;;8364705;28;20254;-69
2022/10/08 12:21:26;;;;;;;5.77;2.27;;;18.30;1.00;;;;;;8369122;28;20204;-69
2022/10/08 12:25:32;;;;;;;6.33;1.90;;;18.40;1.00;;;;;;8369729;28;20206;-68
2022/10/08 12:30:02;;;;;;;6.50;2.00;;;18.30;1.00;;;;;;8374588;28;20189;-68
2022/10/08 12:34:20;;;;;;;4.43;1.67;;;18.40;1.00;;;;;;8367560;28;20514;-68
2022/10/08 12:38:39;;;;;;;6.60;1.47;;;18.00;1.00;;;;;;8371744;28;20244;-68
2022/10/08 12:42:41;;;;;;;5.77;1.80;;;17.80;1.00;;;;;;8374120;28;20189;-69
2022/10/08 12:46:51;;;;;;;4.37;1.43;;;18.00;1.00;;;;;;8371114;28;20216;-68
2022/10/08 12:51:23;;;;;;;5.13;1.87;;;18.40;1.00;;;;;;8374755;28;20189;-69
2022/10/08 12:55:25;;;;;;;5.37;1.50;;;18.70;1.00;;;;;;8371143;28;20225;-68
2022/10/08 12:59:31;;;;;;;4.07;1.80;;;18.70;1.00;;;;;;8371907;28;20239;-72
2022/10/08 13:03:32;;;;;;;4.27;1.53;;;18.00;1.00;;;;;;8369939;28;20193;-69
2022/10/08 13:07:34;;;;;;;7.37;1.57;;;17.60;1.00;;;;;;8373949;28;20234;-68
2022/10/08 13:11:35;;;;;;;8.63;2.10;;;17.40;1.00;;;;;;8373511;28;20243;-68
2022/10/08 13:15:36;;;;;;;4.53;2.00;;;17.50;1.00;;;;;;8372179;28;20223;-67
2022/10/08 13:19:39;;;;;;;6.23;1.73;;;17.30;1.00;;;;;;8372976;28;20193;-69
2022/10/08 13:23:39;;;;;;;6.53;2.13;;;17.40;1.00;;;;;;8376657;28;20190;-67
2022/10/08 13:27:40;;;;;;;5.23;1.93;;;17.50;1.00;;;;;;8374391;28;20189;-67
2022/10/08 13:31:41;;;;;;;4.13;1.17;;;17.40;1.00;;;;;;8374906;28;20200;-70
2022/10/08 13:35:48;;;;;;;5.13;1.47;;;17.50;1.00;;;;;;8377755;28;20220;-72
2022/10/08 13:39:58;;;;;;;5.53;1.30;;;17.40;1.00;;;;;;8380434;28;20182;-69
2022/10/08 13:44:05;;;;;;;6.47;1.37;;;17.30;1.00;;;;;;8378950;28;20323;-68
2022/10/08 13:48:11;;;;;;;3.73;1.20;;;17.40;1.00;;;;;;8375828;28;20427;-68
2022/10/08 13:52:23;;;;;;;4.20;1.30;;;17.50;1.00;;;;;;8377545;28;20224;-69
2022/10/08 13:56:25;;;;;;;3.57;1.07;;;17.50;1.00;;;;;;8372819;28;20228;-70
2022/10/08 14:00:26;;;;;;;5.63;1.07;;;17.30;1.00;;;;;;8378620;28;20255;-69
2022/10/08 14:04:27;;;;;;;3.77;1.40;;;17.20;1.00;;;;;;8381037;28;20193;-68
2022/10/08 14:08:28;;;;;;;6.10;1.30;;;17.00;1.00;;;;;;8374470;28;20318;-67
2022/10/08 14:12:32;;;;;;;3.67;1.10;;;17.00;1.00;;;;;;8379167;28;20208;-68
2022/10/08 14:16:32;;;;;;;3.17;1.07;;;17.00;1.00;;;;;;8377711;28;20213;-68
2022/10/08 14:20:35;;;;;;;3.70;0.90;;;17.00;1.00;;;;;;8377741;28;20249;-68
2022/10/08 14:24:36;;;;;;;3.57;1.00;;;16.90;1.00;;;;;;8377067;28;20194;-68
2022/10/08 14:28:37;;;;;;;5.27;1.00;;;16.80;1.00;;;;;;8374095;28;20197;-69
2022/10/08 14:32:38;;;;;;;3.83;1.03;;;16.90;1.00;;;;;;8379305;28;20325;-68
2022/10/08 14:36:40;;;;;;;3.13;1.20;;;17.10;1.00;;;;;;8376572;28;20216;-68
2022/10/08 14:40:41;;;;;;;4.90;1.30;;;17.10;1.00;;;;;;8375803;28;20185;-68
2022/10/08 14:44:42;;;;;;;2.40;1.10;;;17.00;1.00;;;;;;8373378;28;20276;-68
2022/10/08 14:48:43;;;;;;;3.17;1.00;;;17.10;1.00;;;;;;8377509;28;20185;-69
2022/10/08 14:52:44;;;;;;;3.67;1.10;;;17.00;1.00;;;;;;8377093;28;20189;-68
2022/10/08 14:56:45;;;;;;;2.27;0.77;;;16.80;1.00;;;;;;8371809;28;20215;-67
2022/10/08 15:00:52;;;;;;;3.73;0.70;;;16.70;1.00;;;;;;8375794;28;20185;-69
2022/10/08 15:04:53;;;;;;;3.07;1.13;;;16.70;1.00;;;;;;8377695;28;20216;-68
2022/10/08 15:08:54;;;;;;;5.77;1.23;;;16.50;1.00;;;;;;8377276;28;20376;-68
2022/10/08 15:12:55;;;;;;;4.07;0.93;;;16.20;1.00;;;;;;8376352;28;20193;-69
2022/10/08 15:16:56;;;;;;;6.33;1.30;;;16.10;1.00;;;;;;8374735;28;20212;-68
2022/10/08 15:20:58;;;;;;;3.90;0.93;;;16.00;1.00;;;;;;8376111;28;20190;-69
2022/10/08 15:24:59;;;;;;;2.23;1.30;;;16.00;1.00;;;;;;8373816;28;20191;-68
2022/10/08 15:29:00;;;;;;;2.47;0.73;;;16.00;1.00;;;;;;8376598;28;20287;-68
2022/10/08 15:33:02;;;;;;;5.30;1.20;;;15.90;1.00;;;;;;8375768;28;20182;-68
2022/10/08 15:37:03;;;;;;;3.93;1.00;;;15.70;1.00;;;;;;8372928;28;20202;-69
2022/10/08 15:41:04;;;;;;;4.90;1.10;;;15.70;1.00;;;;;;8376328;28;20535;-68
2022/10/08 15:45:05;;;;;;;5.33;1.00;;;15.70;1.00;;;;;;8372325;28;20231;-68
2022/10/08 15:49:06;;;;;;;5.17;1.30;;;15.60;1.00;;;;;;8374338;28;20283;-67
2022/10/08 15:53:07;;;;;;;3.73;1.43;;;15.40;1.00;;;;;;8375254;28;20192;-68
2022/10/08 15:57:10;;;;;;;6.13;1.20;;;15.10;1.00;;;;;;8373596;28;20358;-67
2022/10/08 16:01:13;;;;;;;5.97;1.30;;;14.90;1.00;;;;;;8390823;28;20251;-67
2022/10/08 16:05:14;;;;;;;2.83;1.10;;;14.70;1.00;;;;;;8372270;28;20189;-68
2022/10/08 16:09:17;;;;;;;5.23;1.57;;;14.50;3.00;;;;;;8372844;28;20274;-68
2022/10/08 16:13:18;;;;;;;6.90;1.70;;;14.30;15.00;;;;;;8376017;28;20193;-68
2022/10/08 16:17:19;;;;;;;3.93;1.20;;;14.10;36.30;;;;;;8372196;28;20209;-68
2022/10/08 16:21:20;;;;;;;5.90;1.20;;;14.00;54.80;;;;;;8370619;28;20213;-68
2022/10/08 16:25:20;;;;;;;4.50;1.30;;;14.00;74.10;;;;;;8375086;28;20189;-67
2022/10/08 16:29:21;;;;;;;5.20;2.03;;;13.90;83.30;;;;;;8378067;28;20189;-67
2022/10/08 16:33:22;;;;;;;4.50;1.10;;;13.90;99.90;;;;;;8374085;28;20260;-67
2022/10/08 16:37:23;;;;;;;4.57;1.27;;;13.80;99.90;;;;;;8373547;28;20212;-68
2022/10/08 16:41:26;;;;;;;6.10;2.53;;;13.80;99.90;;;;;;8376202;28;20219;-68
2022/10/08 16:45:27;;;;;;;6.03;2.13;;;13.70;99.90;;;;;;8373578;28;20673;-67
2022/10/08 16:49:28;;;;;;;5.13;1.90;;;13.60;99.90;;;;;;8372411;28;20266;-67
2022/10/08 16:53:29;;;;;;;5.13;1.53;;;13.40;99.90;;;;;;8370558;28;20194;-68
2022/10/08 16:57:31;;;;;;;5.03;1.67;;;13.30;1.00;;;;;;8374554;28;20216;-68
2022/10/08 17:01:33;;;;;;;3.73;2.10;;;13.10;1.00;;;;;;8371146;28;20194;-68
2022/10/08 17:05:39;;;;;;;5.70;2.00;;;12.60;99.90;;;;;;8375194;28;20188;-69
2022/10/08 17:09:40;;;;;;;9.40;2.00;;;12.40;99.90;;;;;;8375314;28;20189;-68
2022/10/08 17:13:43;;;;;;;6.83;2.63;;;12.20;99.90;;;;;;8380873;28;20200;-68
2022/10/08 17:17:45;;;;;;;5.80;2.33;;;12.10;99.90;;;;;;8369894;28;20236;-68
2022/10/08 17:21:46;;;;;;;10.47;2.93;;;12.00;99.90;;;;;;8375138;28;20208;-68
2022/10/08 17:25:53;;;;;;;9.80;3.23;;;11.90;99.90;;;;;;8379907;28;20222;-68
2022/10/08 17:29:54;;;;;;;5.73;2.47;;;11.90;99.90;;;;;;8378285;28;20185;-68
2022/10/08 17:33:55;;;;;;;5.67;2.17;;;11.80;99.90;;;;;;8377676;28;20279;-68
2022/10/08 17:37:55;;;;;;;5.43;1.80;;;11.70;99.90;;;;;;8377590;28;20487;-68
2022/10/08 17:41:56;;;;;;;7.40;2.30;;;11.60;99.90;;;;;;8378775;28;20220;-68
2022/10/08 17:46:05;;;;;;;11.40;2.30;;;11.60;99.90;;;;;;8377314;28;20192;-68
2022/10/08 17:50:07;;;;;;;9.30;2.60;;;11.50;99.90;;;;;;8361516;28;20192;-67
2022/10/08 17:54:13;;;;;;;4.07;2.37;;;11.60;99.90;;;;;;8379341;28;20200;-69
2022/10/08 17:58:14;;;;;;;7.27;2.80;;;11.60;99.90;;;;;;8378218;28;20295;-67
2022/10/08 18:02:15;;;;;;;3.77;2.10;;;11.60;99.90;;;;;;8377802;28;20208;-67
2022/10/08 18:06:18;;;;;;;4.77;2.40;;;11.70;99.90;;;;;;8374313;28;20288;-67
2022/10/08 18:10:20;;;;;;;4.33;2.43;;;11.70;99.90;;;;;;8375378;28;20216;-68
2022/10/08 18:14:21;;;;;;;6.53;2.67;;;11.70;99.90;;;;;;8381709;28;20200;-67
2022/10/08 18:18:22;;;;;;;9.27;2.73;;;11.70;99.90;;;;;;8372040;28;20201;-69
2022/10/08 18:22:23;;;;;;;6.33;2.83;;;11.60;99.90;;;;;;8374217;28;20429;-68
2022/10/08 18:26:29;;;;;;;8.50;2.90;;;11.60;99.90;;;;;;8378104;28;20240;-67
2022/10/08 18:30:31;;;;;;;7.40;2.33;;;11.50;99.90;;;;;;8377378;28;20188;-68
2022/10/08 18:34:32;;;;;;;10.67;2.83;;;11.50;99.90;;;;;;8372074;28;20263;-68
2022/10/08 18:38:33;;;;;;;5.13;2.50;;;11.40;99.90;;;;;;8377042;28;20245;-68
2022/10/08 18:42:34;;;;;;;5.67;2.70;;;11.30;99.90;;;;;;8378216;28;20184;-68
2022/10/08 18:46:36;;;;;;;8.57;3.03;;;11.20;99.90;;;;;;8377047;28;20195;-69
2022/10/08 18:50:37;;;;;;;8.53;2.70;;;11.00;99.90;;;;;;8372883;28;20194;-68
2022/10/08 18:54:38;;;;;;;4.37;2.70;;;10.90;99.90;;;;;;8379292;28;20231;-69
2022/10/08 18:58:41;;;;;;;3.17;2.07;;;10.80;99.90;;;;;;8373607;28;20210;-68
2022/10/08 19:02:42;;;;;;;3.97;2.17;;;10.70;99.90;;;;;;8375070;28;20207;-68
2022/10/08 19:06:45;;;;;;;6.03;2.37;;;10.60;99.90;;;;;;8375564;28;20301;-68
2022/10/08 19:10:46;;;;;;;4.40;2.10;;;10.50;99.90;;;;;;8377614;28;20272;-67
2022/10/08 19:14:48;;;;;;;6.23;2.40;;;10.40;99.90;;;;;;8374165;28;20218;-68
2022/10/08 19:19:03;;;;;;;9.00;2.50;;;10.30;99.90;;;;;;8370468;28;20178;-68
2022/10/08 19:23:05;;;;;;;7.00;2.53;;;10.20;99.90;;;;;;8374227;28;20217;-68
2022/10/08 19:27:06;;;;;;;3.83;2.40;;;10.10;99.90;;;;;;8375433;28;20214;-68
2022/10/08 19:31:18;;;;;;;4.07;2.47;;;10.00;99.90;;;;;;8377374;28;20192;-68
2022/10/08 19:35:20;;;;;;;7.90;3.00;;;9.90;99.90;;;;;;8375934;28;20203;-68
2022/10/08 19:39:26;;;;;;;5.47;2.80;;;9.90;99.90;;;;;;8376548;28;20236;-68
2022/10/08 19:43:26;;;;;;;5.10;2.70;;;10.00;99.90;;;;;;8364338;28;20177;-68
2022/10/08 19:47:30;;;;;;;4.97;3.57;;;10.00;99.90;;;;;;8371533;28;20195;-68
2022/10/08 19:51:32;;;;;;;8.67;3.23;;;10.10;99.90;;;;;;8374161;28;20190;-68
2022/10/08 19:55:36;;;;;;;9.60;4.00;;;10.00;99.90;;;;;;8373538;28;20299;-67
2022/10/08 19:59:37;;;;;;;7.27;3.97;;;9.90;99.90;;;;;;8371404;28;20217;-68
2022/10/08 20:03:38;;;;;;;7.97;3.40;;;9.90;99.90;;;;;;8373902;28;20298;-68
2022/10/08 20:07:40;;;;;;;8.40;4.53;;;9.80;99.90;;;;;;8375381;28;20189;-68
2022/10/08 20:11:42;;;;;;;8.17;3.80;;;9.80;99.90;;;;;;8373798;28;20217;-68
2022/10/08 20:15:45;;;;;;;5.17;3.43;;;9.80;99.90;;;;;;8373660;28;20544;-68
2022/10/08 20:19:46;;;;;;;6.50;3.90;;;9.80;99.90;;;;;;8373666;28;20189;-68
2022/10/08 20:23:47;;;;;;;6.90;3.93;;;9.80;99.90;;;;;;8372599;28;20251;-68
2022/10/08 20:27:49;;;;;;;5.13;3.30;;;9.90;99.90;;;;;;8375470;28;20186;-68
2022/10/08 20:31:53;;;;;;;7.30;3.87;;;9.90;99.90;;;;;;8373742;28;20267;-68
2022/10/08 20:35:57;;;;;;;7.70;3.50;;;9.90;99.90;;;;;;8370404;28;20214;-68
2022/10/08 20:40:02;;;;;;;6.87;2.80;;;9.80;99.90;;;;;;8371727;28;20196;-68
2022/10/08 20:44:04;;;;;;;5.10;2.70;;;9.80;99.90;;;;;;8374561;28;20184;-68
2022/10/08 20:48:05;;;;;;;3.50;2.50;;;9.80;99.90;;;;;;8375381;28;20189;-68
2022/10/08 20:52:06;;;;;;;3.77;2.13;;;9.70;99.90;;;;;;8373115;28;20189;-68
2022/10/08 20:56:10;;;;;;;5.33;2.00;;;9.50;99.90;;;;;;8372617;28;20272;-70
2022/10/08 21:00:11;;;;;;;4.87;2.40;;;9.40;99.90;;;;;;8375051;28;20251;-69
2022/10/08 21:04:12;;;;;;;2.37;2.00;;;9.30;99.90;;;;;;8375276;28;20204;-68
2022/10/08 21:08:13;;;;;;;3.37;1.73;;;9.30;99.90;;;;;;8366834;28;20185;-68
2022/10/08 21:12:14;;;;;;;4.50;2.10;;;9.20;99.90;;;;;;8370531;28;20225;-68
2022/10/08 21:16:21;;;;;;;4.23;2.30;;;9.20;99.90;;;;;;8371925;28;20280;-68
2022/10/08 21:20:22;;;;;;;8.00;2.70;;;9.10;99.90;;;;;;8373728;28;20239;-68